Time;durP1;ratioP1;P1;durP2;ratioP2;P2;SDS_P1;SDS_P2;PMS_P1;PMS_P2;Temp;Humidity;BMP_temperature;BMP_pressure;BME280_temperature;BME280_humidity;BME280_pressure;Samples;Min_cycle;Max_cycle;Signal;HPM_P1;HPM_P2
2021/11/15 00:02:21;;;;;;;17.73;14.03;;;9.60;84.30;;;;;;4912098;29;20547;-42
2021/11/15 00:04:49;;;;;;;18.73;13.70;;;9.60;84.40;;;;;;4910279;29;20476;-42
2021/11/15 00:07:16;;;;;;;18.50;14.40;;;9.60;84.40;;;;;;4910149;29;20524;-42
2021/11/15 00:09:43;;;;;;;19.13;14.23;;;9.60;84.30;;;;;;4908730;29;20555;-42
2021/11/15 00:12:12;;;;;;;19.63;14.90;;;9.50;84.60;;;;;;4908525;29;20478;-42
2021/11/15 00:14:39;;;;;;;19.30;13.70;;;9.50;84.90;;;;;;4891023;29;20883;-42
2021/11/15 00:17:06;;;;;;;20.53;14.30;;;9.50;84.80;;;;;;4909633;29;20469;-42
2021/11/15 00:19:33;;;;;;;18.00;14.00;;;9.60;84.60;;;;;;4911366;29;20456;-42
2021/11/15 00:22:00;;;;;;;18.60;14.20;;;9.60;84.30;;;;;;4909348;29;20830;-42
2021/11/15 00:24:27;;;;;;;20.60;13.80;;;9.60;84.50;;;;;;4906313;29;20483;-42
2021/11/15 00:26:54;;;;;;;18.20;13.37;;;9.50;84.60;;;;;;4895970;29;20497;-42
2021/11/15 00:29:21;;;;;;;18.60;14.77;;;9.50;84.60;;;;;;4909549;29;20500;-42
2021/11/15 00:31:47;;;;;;;17.40;13.57;;;9.50;84.60;;;;;;4897511;29;20461;-42
2021/11/15 00:34:14;;;;;;;19.90;13.63;;;9.50;84.70;;;;;;4897361;29;20972;-42
2021/11/15 00:36:41;;;;;;;17.83;13.60;;;9.50;84.90;;;;;;4908719;29;20703;-42
2021/11/15 00:39:08;;;;;;;19.30;13.63;;;9.50;84.90;;;;;;4909807;29;20460;-42
2021/11/15 00:41:35;;;;;;;18.10;12.70;;;9.50;84.80;;;;;;4894709;29;20472;-42
2021/11/15 00:44:02;;;;;;;20.70;15.23;;;9.50;84.90;;;;;;4910930;29;20464;-42
2021/11/15 00:46:29;;;;;;;18.73;14.47;;;9.50;84.90;;;;;;4910446;29;21432;-42
2021/11/15 00:48:56;;;;;;;19.43;13.53;;;9.50;85.00;;;;;;4911078;29;20461;-42
2021/11/15 00:51:27;;;;;;;19.97;13.90;;;9.50;84.90;;;;;;4893991;29;20461;-42
2021/11/15 00:53:57;;;;;;;19.13;13.60;;;9.50;85.00;;;;;;4911288;29;21015;-42
2021/11/15 00:56:25;;;;;;;16.90;13.03;;;9.50;84.80;;;;;;4910668;29;20600;-42
2021/11/15 00:58:52;;;;;;;16.73;12.10;;;9.50;84.80;;;;;;4908912;29;20461;-42
2021/11/15 01:01:20;;;;;;;18.53;12.20;;;9.50;84.80;;;;;;4892312;29;20473;-42
2021/11/15 01:03:47;;;;;;;15.73;11.67;;;9.50;84.60;;;;;;4910364;29;20464;-42
2021/11/15 01:06:14;;;;;;;17.27;11.93;;;9.50;84.40;;;;;;4910035;29;20957;-42
2021/11/15 01:08:41;;;;;;;17.40;12.13;;;9.50;84.50;;;;;;4910522;29;20496;-42
2021/11/15 01:11:08;;;;;;;16.77;12.80;;;9.50;84.60;;;;;;4893398;29;20749;-42
2021/11/15 01:13:35;;;;;;;18.03;13.43;;;9.50;84.60;;;;;;4910705;29;20460;-42
2021/11/15 01:16:03;;;;;;;15.07;12.00;;;9.50;84.70;;;;;;4911307;29;20999;-42
2021/11/15 01:18:30;;;;;;;17.37;12.70;;;9.50;84.60;;;;;;4910740;29;20460;-42
2021/11/15 01:20:57;;;;;;;18.37;12.97;;;9.50;84.60;;;;;;4913096;29;20457;-42
2021/11/15 01:23:23;;;;;;;17.47;12.30;;;9.50;84.70;;;;;;4913728;29;20461;-42
2021/11/15 01:25:50;;;;;;;16.70;12.20;;;9.50;84.60;;;;;;4897150;29;20467;-42
2021/11/15 01:28:17;;;;;;;18.13;13.30;;;9.50;84.50;;;;;;4914303;29;20488;-42
2021/11/15 01:30:44;;;;;;;14.90;11.50;;;9.50;84.60;;;;;;4898292;29;20901;-42
2021/11/15 01:33:11;;;;;;;17.30;12.00;;;9.50;84.40;;;;;;4913170;29;20499;-42
2021/11/15 01:35:38;;;;;;;15.90;11.63;;;9.50;84.30;;;;;;4896322;29;20469;-42
2021/11/15 01:38:04;;;;;;;15.33;11.27;;;9.50;84.30;;;;;;4913864;29;20491;-42
2021/11/15 01:40:32;;;;;;;18.23;13.53;;;9.50;84.30;;;;;;4912679;29;20461;-42
2021/11/15 01:43:01;;;;;;;15.50;12.60;;;9.50;84.30;;;;;;4913292;29;20483;-42
2021/11/15 01:45:30;;;;;;;17.30;12.80;;;9.50;84.20;;;;;;4912488;29;20465;-42
2021/11/15 01:48:00;;;;;;;18.20;13.20;;;9.50;84.10;;;;;;4913655;29;21186;-42
2021/11/15 01:50:29;;;;;;;16.53;11.80;;;9.50;84.20;;;;;;4913223;29;20457;-42
2021/11/15 01:52:57;;;;;;;15.20;10.97;;;9.50;84.20;;;;;;4914187;29;20498;-42
2021/11/15 01:55:26;;;;;;;18.73;12.63;;;9.50;84.00;;;;;;4893876;29;20527;-42
2021/11/15 01:57:53;;;;;;;14.17;10.40;;;9.50;84.00;;;;;;4911132;29;20473;-42
2021/11/15 02:00:28;;;;;;;13.13;11.10;;;9.50;84.00;;;;;;4912322;29;20836;-42
2021/11/15 02:02:56;;;;;;;15.87;12.40;;;9.50;84.00;;;;;;4910345;29;20977;-42
2021/11/15 02:05:23;;;;;;;13.47;10.30;;;9.50;83.90;;;;;;4911140;29;20472;-42
2021/11/15 02:07:50;;;;;;;12.97;10.87;;;9.50;84.00;;;;;;4907241;29;20506;-42
2021/11/15 02:10:18;;;;;;;15.60;10.87;;;9.50;84.10;;;;;;4894374;29;20869;-42
2021/11/15 02:12:44;;;;;;;16.30;11.47;;;9.50;84.10;;;;;;4911741;29;20465;-42
2021/11/15 02:15:13;;;;;;;14.57;11.73;;;9.50;84.10;;;;;;4905632;29;20504;-42
2021/11/15 02:17:43;;;;;;;16.10;10.17;;;9.50;83.80;;;;;;4909680;29;20487;-42
2021/11/15 02:20:34;;;;;;;15.17;11.10;;;9.60;83.60;;;;;;4911536;29;20473;-42
2021/11/15 02:23:01;;;;;;;13.97;10.70;;;9.60;83.20;;;;;;4883500;29;20484;-42
2021/11/15 02:25:27;;;;;;;14.67;10.53;;;9.60;83.20;;;;;;4909835;29;20483;-42
2021/11/15 02:27:54;;;;;;;15.23;12.10;;;9.60;83.20;;;;;;4910307;29;20874;-42
2021/11/15 02:30:24;;;;;;;16.70;12.10;;;9.60;83.40;;;;;;4909617;29;20505;-42
2021/11/15 02:32:52;;;;;;;18.60;11.90;;;9.60;83.30;;;;;;4912407;29;20858;-42
2021/11/15 02:35:20;;;;;;;17.87;11.90;;;9.60;83.00;;;;;;4897643;29;20457;-42
2021/11/15 02:37:48;;;;;;;17.73;12.33;;;9.50;83.10;;;;;;4910213;29;20956;-42
2021/11/15 02:40:18;;;;;;;14.13;10.87;;;9.60;83.10;;;;;;4910637;29;20458;-42
2021/11/15 02:42:46;;;;;;;16.53;11.40;;;9.60;83.20;;;;;;4912297;29;20460;-42
2021/11/15 02:45:15;;;;;;;18.20;11.67;;;9.60;83.30;;;;;;4893923;29;20464;-42
2021/11/15 02:47:42;;;;;;;15.50;11.80;;;9.60;83.30;;;;;;4910387;29;20499;-42
2021/11/15 02:50:13;;;;;;;15.20;11.20;;;9.60;83.40;;;;;;4909030;29;20461;-42
2021/11/15 02:52:45;;;;;;;14.67;10.40;;;9.60;83.40;;;;;;4908285;29;20458;-42
2021/11/15 02:55:12;;;;;;;15.10;10.07;;;9.60;83.30;;;;;;4909270;29;20477;-42
2021/11/15 02:57:39;;;;;;;20.97;11.57;;;9.60;83.10;;;;;;4913186;29;20464;-42
2021/11/15 03:00:21;;;;;;;15.70;10.80;;;9.60;83.00;;;;;;4910945;29;20465;-42
2021/11/15 03:02:49;;;;;;;17.37;11.20;;;9.60;82.90;;;;;;4910612;29;20467;-42
2021/11/15 03:05:29;;;;;;;17.53;11.10;;;9.60;82.80;;;;;;4910129;29;20841;-42
2021/11/15 03:07:56;;;;;;;18.63;11.73;;;9.60;82.90;;;;;;4910420;29;20496;-42
2021/11/15 03:10:23;;;;;;;16.97;11.83;;;9.60;83.00;;;;;;4908706;29;20844;-42
2021/11/15 03:12:51;;;;;;;15.17;11.37;;;9.60;83.00;;;;;;4896242;29;20463;-42
2021/11/15 03:15:25;;;;;;;15.33;10.43;;;9.60;83.00;;;;;;4894904;29;20572;-42
2021/11/15 03:18:04;;;;;;;15.20;11.87;;;9.60;83.00;;;;;;4895871;29;20497;-42
2021/11/15 03:20:36;;;;;;;16.07;9.87;;;9.60;83.00;;;;;;4910152;29;20948;-42
2021/11/15 03:23:27;;;;;;;18.53;12.93;;;9.60;83.00;;;;;;4912159;29;20464;-42
2021/11/15 03:25:56;;;;;;;16.60;10.50;;;9.50;83.00;;;;;;4911583;29;20541;-42
2021/11/15 03:28:29;;;;;;;17.53;12.07;;;9.60;83.00;;;;;;4895418;29;20575;-42
2021/11/15 03:30:59;;;;;;;11.87;9.37;;;9.60;82.90;;;;;;4911915;29;20457;-42
2021/11/15 03:33:29;;;;;;;15.50;11.50;;;9.60;82.80;;;;;;4893292;29;21008;-42
2021/11/15 03:35:56;;;;;;;18.07;12.73;;;9.60;82.80;;;;;;4909846;29;20504;-42
2021/11/15 03:38:23;;;;;;;17.63;10.77;;;9.60;82.90;;;;;;4896834;29;20552;-43
2021/11/15 03:40:50;;;;;;;17.03;11.30;;;9.60;83.10;;;;;;4913074;29;20489;-44
2021/11/15 03:43:16;;;;;;;13.87;10.63;;;9.60;82.80;;;;;;4914089;29;20453;-43
2021/11/15 03:45:44;;;;;;;16.40;11.40;;;9.70;82.90;;;;;;4893543;29;20476;-43
2021/11/15 03:48:11;;;;;;;14.90;10.60;;;9.60;83.00;;;;;;4913390;29;21007;-43
2021/11/15 03:50:39;;;;;;;15.30;11.70;;;9.60;83.10;;;;;;4914437;29;20670;-43
2021/11/15 03:53:12;;;;;;;17.13;12.10;;;9.60;83.00;;;;;;4913970;29;20544;-43
2021/11/15 03:55:40;;;;;;;17.07;11.27;;;9.60;83.00;;;;;;4913269;29;20481;-43
2021/11/15 03:58:08;;;;;;;16.87;11.30;;;9.60;83.20;;;;;;4896722;29;20855;-42
2021/11/15 04:00:39;;;;;;;16.67;11.60;;;9.60;83.20;;;;;;4910927;29;20885;-42
2021/11/15 04:03:17;;;;;;;17.70;12.13;;;9.60;83.20;;;;;;4907842;29;20453;-42
2021/11/15 04:05:50;;;;;;;15.07;11.10;;;9.60;83.30;;;;;;4911467;29;20933;-42
2021/11/15 04:08:17;;;;;;;17.70;11.57;;;9.60;83.40;;;;;;4909553;29;20512;-42
2021/11/15 04:10:44;;;;;;;16.40;11.43;;;9.60;83.40;;;;;;4910597;29;20475;-42
2021/11/15 04:13:27;;;;;;;15.53;10.63;;;9.60;83.40;;;;;;4911316;29;20456;-42
2021/11/15 04:15:57;;;;;;;14.07;10.90;;;9.60;83.30;;;;;;4910652;29;20456;-42
2021/11/15 04:18:29;;;;;;;18.27;11.90;;;9.60;83.30;;;;;;4909920;29;20452;-42
2021/11/15 04:20:58;;;;;;;15.23;10.20;;;9.60;83.10;;;;;;4911058;29;20469;-42
2021/11/15 04:23:25;;;;;;;14.63;10.50;;;9.60;83.10;;;;;;4910852;29;20475;-42
2021/11/15 04:25:52;;;;;;;16.73;11.33;;;9.60;82.90;;;;;;4910995;29;20484;-42
2021/11/15 04:28:19;;;;;;;13.43;10.10;;;9.60;82.80;;;;;;4881203;29;20492;-42
2021/11/15 04:30:45;;;;;;;16.20;11.50;;;9.60;82.80;;;;;;4893961;29;20453;-42
2021/11/15 04:33:12;;;;;;;14.97;10.17;;;9.50;82.80;;;;;;4892806;29;20499;-42
2021/11/15 04:35:39;;;;;;;17.07;10.70;;;9.50;83.10;;;;;;4911713;29;20479;-42
2021/11/15 04:38:08;;;;;;;17.30;11.07;;;9.50;83.10;;;;;;4911199;29;20457;-42
2021/11/15 04:40:35;;;;;;;17.73;11.10;;;9.60;83.20;;;;;;4910532;29;20578;-42
2021/11/15 04:43:04;;;;;;;15.57;11.33;;;9.60;83.10;;;;;;4909831;29;20467;-42
2021/11/15 04:45:31;;;;;;;17.20;11.07;;;9.60;82.90;;;;;;4908360;29;20453;-42
2021/11/15 04:47:57;;;;;;;14.37;11.03;;;9.60;83.00;;;;;;4893329;29;21024;-42
2021/11/15 04:50:25;;;;;;;15.27;9.33;;;9.60;83.00;;;;;;4893176;29;20812;-42
2021/11/15 04:52:51;;;;;;;16.63;10.50;;;9.60;83.00;;;;;;4910122;29;20983;-42
2021/11/15 04:55:22;;;;;;;14.10;9.70;;;9.60;83.00;;;;;;4896801;29;20487;-42
2021/11/15 04:57:49;;;;;;;16.83;11.33;;;9.60;83.20;;;;;;4911749;29;20477;-42
2021/11/15 05:00:24;;;;;;;17.30;11.63;;;9.60;83.20;;;;;;4913611;29;20453;-42
2021/11/15 05:02:51;;;;;;;15.00;11.47;;;9.60;83.20;;;;;;4914604;29;20508;-42
2021/11/15 05:05:18;;;;;;;17.93;10.83;;;9.60;83.10;;;;;;4914271;29;20468;-42
2021/11/15 05:07:54;;;;;;;14.50;10.50;;;9.60;83.30;;;;;;4898079;29;20493;-42
2021/11/15 05:10:23;;;;;;;19.47;12.00;;;9.60;83.30;;;;;;4913591;29;20547;-42
2021/11/15 05:12:50;;;;;;;16.00;10.83;;;9.60;83.30;;;;;;4912364;29;20940;-42
2021/11/15 05:15:18;;;;;;;18.37;12.43;;;9.60;83.40;;;;;;4912769;29;20843;-42
2021/11/15 05:17:47;;;;;;;15.73;11.60;;;9.60;83.50;;;;;;4913526;29;20449;-42
2021/11/15 05:20:16;;;;;;;16.03;9.97;;;9.60;83.50;;;;;;4897961;29;20483;-42
2021/11/15 05:22:43;;;;;;;17.53;11.60;;;9.50;83.20;;;;;;4914815;29;20461;-42
2021/11/15 05:25:10;;;;;;;15.40;10.67;;;9.60;83.50;;;;;;4914191;29;20846;-42
2021/11/15 05:27:38;;;;;;;17.47;10.97;;;9.50;83.40;;;;;;4914263;29;20959;-42
2021/11/15 05:30:06;;;;;;;14.20;9.87;;;9.50;83.40;;;;;;4911976;29;20461;-42
2021/11/15 05:32:33;;;;;;;15.57;11.27;;;9.50;83.20;;;;;;4898326;29;20941;-42
2021/11/15 05:34:59;;;;;;;16.07;10.70;;;9.50;83.30;;;;;;4896923;29;20460;-42
2021/11/15 05:37:27;;;;;;;16.47;11.27;;;9.60;83.20;;;;;;4909409;29;21032;-42
2021/11/15 05:39:53;;;;;;;18.40;12.33;;;9.50;83.10;;;;;;4913894;29;20460;-42
2021/11/15 05:42:20;;;;;;;15.10;10.60;;;9.60;83.00;;;;;;4912514;29;20472;-42
2021/11/15 05:44:47;;;;;;;16.53;11.00;;;9.60;83.00;;;;;;4896817;29;20457;-42
2021/11/15 05:47:14;;;;;;;13.50;9.97;;;9.50;82.70;;;;;;4913853;29;21003;-42
2021/11/15 05:49:40;;;;;;;16.40;11.20;;;9.50;82.90;;;;;;4897316;29;20519;-42
2021/11/15 05:52:09;;;;;;;16.03;11.00;;;9.50;82.90;;;;;;4912673;29;20460;-42
2021/11/15 05:54:36;;;;;;;13.87;10.77;;;9.50;82.80;;;;;;4911329;29;20960;-42
2021/11/15 05:57:03;;;;;;;15.73;10.07;;;9.50;82.80;;;;;;4913248;29;20479;-42
2021/11/15 05:59:30;;;;;;;15.97;11.07;;;9.50;82.80;;;;;;4896745;29;20948;-42
2021/11/15 06:01:56;;;;;;;16.10;11.30;;;9.50;83.00;;;;;;4893779;29;20468;-43
2021/11/15 06:04:23;;;;;;;16.27;10.80;;;9.50;83.00;;;;;;4895343;29;20452;-43
2021/11/15 06:06:51;;;;;;;15.00;10.77;;;9.50;83.00;;;;;;4896417;29;20457;-42
2021/11/15 06:09:18;;;;;;;14.13;10.13;;;9.60;82.80;;;;;;4912571;29;20493;-42
2021/11/15 06:11:45;;;;;;;14.30;10.30;;;9.50;82.70;;;;;;4912049;29;20483;-42
2021/11/15 06:14:12;;;;;;;17.60;11.80;;;9.60;82.60;;;;;;4913421;29;20461;-42
2021/11/15 06:16:38;;;;;;;18.50;11.60;;;9.60;82.70;;;;;;4908966;29;21130;-42
2021/11/15 06:19:05;;;;;;;16.30;10.53;;;9.50;82.90;;;;;;4895147;29;20452;-42
2021/11/15 06:21:32;;;;;;;17.80;11.70;;;9.50;83.00;;;;;;4912170;29;20893;-42
2021/11/15 06:23:59;;;;;;;17.83;12.43;;;9.60;82.90;;;;;;4911756;29;20583;-42
2021/11/15 06:26:28;;;;;;;18.83;11.50;;;9.50;82.80;;;;;;4898346;29;20496;-42
2021/11/15 06:28:55;;;;;;;18.77;10.87;;;9.50;82.90;;;;;;4913118;29;20852;-43
2021/11/15 06:31:23;;;;;;;15.10;10.37;;;9.60;83.00;;;;;;4911141;29;20463;-42
2021/11/15 06:33:50;;;;;;;14.47;9.10;;;9.60;82.70;;;;;;4911468;29;20469;-42
2021/11/15 06:36:17;;;;;;;14.80;10.30;;;9.60;82.70;;;;;;4910233;29;20472;-42
2021/11/15 06:38:44;;;;;;;17.30;11.37;;;9.60;82.70;;;;;;4911313;29;20476;-42
2021/11/15 06:41:11;;;;;;;19.47;10.00;;;9.60;82.70;;;;;;4909479;29;20474;-42
2021/11/15 06:43:38;;;;;;;15.13;10.17;;;9.60;82.70;;;;;;4909588;29;20464;-42
2021/11/15 06:46:05;;;;;;;21.47;11.43;;;9.60;82.50;;;;;;4907293;29;20504;-42
2021/11/15 06:48:37;;;;;;;15.57;10.30;;;9.60;82.60;;;;;;4910702;29;20560;-42
2021/11/15 06:51:04;;;;;;;14.30;9.70;;;9.50;82.80;;;;;;4911618;29;20468;-42
2021/11/15 06:53:31;;;;;;;14.60;10.70;;;9.50;82.70;;;;;;4898169;29;20544;-43
2021/11/15 06:55:59;;;;;;;13.77;9.97;;;9.50;82.80;;;;;;4912585;29;20484;-42
2021/11/15 06:58:27;;;;;;;14.20;9.80;;;9.50;82.70;;;;;;4912364;29;20492;-42
2021/11/15 07:00:54;;;;;;;16.40;11.23;;;9.50;82.80;;;;;;4906865;29;20465;-42
2021/11/15 07:03:22;;;;;;;16.10;9.60;;;9.50;82.80;;;;;;4906405;29;20461;-42
2021/11/15 07:05:48;;;;;;;18.50;12.03;;;9.50;82.70;;;;;;4908914;29;20564;-42
2021/11/15 07:08:16;;;;;;;17.50;11.33;;;9.50;82.70;;;;;;4907951;29;20501;-42
2021/11/15 07:10:43;;;;;;;19.27;10.93;;;9.50;82.70;;;;;;4910120;29;20645;-42
2021/11/15 07:13:13;;;;;;;17.53;10.57;;;9.60;82.80;;;;;;4875907;29;20487;-42
2021/11/15 07:15:42;;;;;;;14.00;8.23;;;9.50;82.80;;;;;;4909261;29;20477;-42
2021/11/15 07:18:09;;;;;;;17.10;11.10;;;9.50;82.80;;;;;;4907570;29;20467;-42
2021/11/15 07:20:36;;;;;;;16.97;10.37;;;9.50;82.80;;;;;;4907256;29;20825;-43
2021/11/15 07:23:04;;;;;;;14.80;10.60;;;9.50;82.80;;;;;;4909785;29;20507;-43
2021/11/15 07:25:31;;;;;;;19.07;10.93;;;9.50;82.70;;;;;;4907273;29;20473;-43
2021/11/15 07:27:58;;;;;;;15.50;10.53;;;9.50;82.80;;;;;;4896351;29;20469;-42
2021/11/15 07:30:25;;;;;;;14.17;10.33;;;9.50;82.60;;;;;;4894576;29;20497;-42
2021/11/15 07:32:53;;;;;;;12.93;9.67;;;9.50;82.60;;;;;;4909845;29;20456;-42
2021/11/15 07:35:22;;;;;;;13.20;9.27;;;9.50;82.60;;;;;;4910133;29;20960;-42
2021/11/15 07:37:49;;;;;;;15.33;9.93;;;9.50;82.60;;;;;;4909209;29;20831;-42
2021/11/15 07:40:18;;;;;;;14.80;10.57;;;9.50;82.60;;;;;;4911183;29;20453;-43
2021/11/15 07:42:45;;;;;;;18.20;10.70;;;9.50;82.50;;;;;;4910626;29;20479;-42
2021/11/15 07:45:12;;;;;;;15.77;10.13;;;9.50;82.10;;;;;;4907583;29;20477;-42
2021/11/15 07:47:40;;;;;;;14.67;10.77;;;9.50;82.40;;;;;;4894684;29;20471;-42
2021/11/15 07:50:08;;;;;;;17.90;11.40;;;9.50;82.60;;;;;;4906873;29;20488;-42
2021/11/15 07:52:36;;;;;;;13.50;9.07;;;9.50;82.50;;;;;;4910016;29;20475;-42
2021/11/15 07:55:06;;;;;;;15.20;9.00;;;9.50;82.60;;;;;;4912012;29;20475;-42
2021/11/15 07:57:33;;;;;;;11.80;9.77;;;9.50;82.60;;;;;;4893822;29;20461;-42
2021/11/15 08:00:00;;;;;;;16.60;9.90;;;9.50;82.60;;;;;;4911085;29;20465;-42
2021/11/15 08:02:27;;;;;;;16.80;10.50;;;9.50;82.70;;;;;;4897849;29;20840;-42
2021/11/15 08:04:54;;;;;;;14.13;9.93;;;9.50;82.80;;;;;;4908135;29;20475;-42
2021/11/15 08:07:21;;;;;;;16.03;11.00;;;9.50;82.60;;;;;;4909238;29;20559;-42
2021/11/15 08:09:48;;;;;;;14.90;9.70;;;9.50;82.50;;;;;;4910421;29;20503;-42
2021/11/15 08:12:18;;;;;;;15.20;9.80;;;9.50;82.50;;;;;;4910853;29;21020;-42
2021/11/15 08:14:45;;;;;;;12.10;8.70;;;9.50;82.50;;;;;;4908328;29;20493;-42
2021/11/15 08:17:14;;;;;;;13.17;9.00;;;9.50;82.60;;;;;;4910420;29;20961;-42
2021/11/15 08:19:42;;;;;;;16.97;8.90;;;9.60;82.80;;;;;;4911191;29;20472;-42
2021/11/15 08:22:09;;;;;;;13.20;8.47;;;9.60;82.60;;;;;;4907012;29;20483;-42
2021/11/15 08:25:07;;;;;;;13.90;9.60;;;9.50;82.60;;;;;;4911196;29;20859;-42
2021/11/15 08:27:34;;;;;;;13.53;9.13;;;9.50;82.70;;;;;;4910049;29;20475;-42
2021/11/15 08:30:01;;;;;;;12.87;9.03;;;9.50;82.50;;;;;;4913869;29;20515;-42
2021/11/15 08:32:27;;;;;;;18.37;11.87;;;9.50;82.50;;;;;;4914022;29;20457;-42
2021/11/15 08:34:58;;;;;;;16.47;12.40;;;9.50;82.60;;;;;;4914917;29;20456;-42
2021/11/15 08:37:25;;;;;;;14.70;10.90;;;9.50;82.60;;;;;;4914416;29;20459;-42
2021/11/15 08:39:52;;;;;;;15.07;9.37;;;9.50;82.30;;;;;;4913518;29;20469;-42
2021/11/15 08:42:19;;;;;;;12.43;8.37;;;9.50;82.30;;;;;;4915144;29;20855;-42
2021/11/15 08:44:54;;;;;;;11.30;8.33;;;9.50;82.10;;;;;;4914148;29;20463;-42
2021/11/15 08:47:22;;;;;;;9.50;7.47;;;9.60;81.90;;;;;;4915213;29;20461;-42
2021/11/15 08:49:50;;;;;;;11.60;7.20;;;9.50;81.90;;;;;;4896876;29;20508;-41
2021/11/15 08:52:18;;;;;;;10.93;7.70;;;9.50;82.20;;;;;;4914789;29;20476;-41
2021/11/15 08:54:49;;;;;;;12.70;8.23;;;9.50;82.30;;;;;;4913640;29;20465;-42
2021/11/15 08:57:16;;;;;;;10.77;7.70;;;9.50;82.20;;;;;;4912677;29;20464;-43
2021/11/15 08:59:47;;;;;;;11.13;7.73;;;9.50;82.00;;;;;;4910032;29;21009;-42
2021/11/15 09:02:14;;;;;;;9.50;7.57;;;9.50;82.10;;;;;;4909415;29;20472;-42
2021/11/15 09:04:41;;;;;;;8.70;7.17;;;9.60;82.00;;;;;;4908828;29;20488;-42
2021/11/15 09:07:08;;;;;;;9.80;6.60;;;9.60;81.90;;;;;;4912763;29;20477;-42
2021/11/15 09:09:37;;;;;;;11.03;6.90;;;9.60;81.90;;;;;;4895396;29;20528;-42
2021/11/15 09:12:06;;;;;;;10.27;7.43;;;9.60;81.70;;;;;;4912817;29;20862;-42
2021/11/15 09:14:33;;;;;;;8.60;6.70;;;9.60;81.90;;;;;;4899679;29;20453;-42
2021/11/15 09:16:59;;;;;;;12.97;8.20;;;9.60;81.80;;;;;;4897416;29;20467;-42
2021/11/15 09:19:26;;;;;;;13.83;8.00;;;9.60;81.60;;;;;;4910752;29;20471;-42
2021/11/15 09:21:55;;;;;;;9.93;7.80;;;9.60;81.40;;;;;;4911307;29;20475;-42
2021/11/15 09:24:22;;;;;;;11.73;6.73;;;9.60;81.50;;;;;;4899069;29;20465;-42
2021/11/15 09:26:50;;;;;;;10.80;7.67;;;9.60;81.40;;;;;;4910340;29;20479;-42
2021/11/15 09:29:18;;;;;;;7.73;6.90;;;9.60;81.40;;;;;;4908693;29;20890;-42
2021/11/15 09:31:45;;;;;;;9.77;7.70;;;9.60;81.20;;;;;;4905737;29;20457;-42
2021/11/15 09:34:12;;;;;;;9.83;7.03;;;9.50;81.50;;;;;;4913046;29;20469;-42
2021/11/15 09:36:39;;;;;;;8.67;6.93;;;9.60;81.70;;;;;;4914290;29;20716;-42
2021/11/15 09:39:08;;;;;;;7.47;6.13;;;9.60;81.40;;;;;;4913388;29;20476;-42
2021/11/15 09:41:36;;;;;;;10.93;7.37;;;9.60;81.00;;;;;;4903611;29;20484;-42
2021/11/15 09:44:04;;;;;;;10.67;7.20;;;9.60;81.00;;;;;;4911528;29;20461;-42
2021/11/15 09:46:32;;;;;;;9.43;7.40;;;9.60;80.70;;;;;;4910392;29;20471;-42
2021/11/15 09:49:09;;;;;;;9.23;7.40;;;9.60;80.90;;;;;;4909833;29;21107;-41
2021/11/15 09:51:37;;;;;;;11.17;7.73;;;9.50;81.10;;;;;;4912410;29;20471;-41
2021/11/15 09:54:05;;;;;;;7.50;6.50;;;9.50;81.20;;;;;;4909250;29;20471;-41
2021/11/15 09:56:33;;;;;;;9.57;6.70;;;9.60;81.50;;;;;;4906928;29;21208;-42
2021/11/15 09:59:03;;;;;;;9.57;6.80;;;9.60;81.50;;;;;;4893458;29;20844;-42
2021/11/15 10:01:30;;;;;;;7.30;6.20;;;9.60;81.20;;;;;;4909446;29;20467;-42
2021/11/15 10:03:57;;;;;;;7.27;6.07;;;9.60;81.00;;;;;;4911011;29;20473;-42
2021/11/15 10:06:24;;;;;;;8.70;5.70;;;9.60;80.90;;;;;;4912383;29;20740;-42
2021/11/15 10:08:54;;;;;;;9.17;6.70;;;9.70;80.60;;;;;;4911446;29;20475;-42
2021/11/15 10:11:23;;;;;;;7.00;6.20;;;9.70;80.80;;;;;;4910155;29;20469;-42
2021/11/15 10:13:53;;;;;;;9.30;5.53;;;9.60;80.40;;;;;;4892531;29;20475;-42
2021/11/15 10:16:26;;;;;;;5.93;5.03;;;9.60;80.40;;;;;;4911891;29;20965;-42
2021/11/15 10:19:05;;;;;;;9.23;6.03;;;9.60;80.50;;;;;;4911731;29;20475;-42
2021/11/15 10:21:38;;;;;;;11.70;7.87;;;9.60;80.60;;;;;;4893915;29;20457;-42
2021/11/15 10:24:24;;;;;;;11.47;7.43;;;9.60;81.00;;;;;;4911863;29;20472;-42
2021/11/15 10:26:55;;;;;;;7.70;5.83;;;9.70;81.00;;;;;;4909847;29;20461;-42
2021/11/15 10:29:32;;;;;;;7.80;5.13;;;9.60;80.90;;;;;;4911541;29;20768;-42
2021/11/15 10:32:17;;;;;;;10.40;6.43;;;9.70;80.80;;;;;;4913240;29;20779;-42
2021/11/15 10:34:51;;;;;;;11.87;6.00;;;9.70;80.70;;;;;;4903368;29;20461;-42
2021/11/15 10:37:26;;;;;;;9.67;6.27;;;9.60;81.00;;;;;;4895334;29;20469;-42
2021/11/15 10:40:06;;;;;;;10.73;6.60;;;9.60;80.90;;;;;;4906033;29;20809;-42
2021/11/15 10:42:38;;;;;;;8.03;6.00;;;9.70;81.00;;;;;;4910266;29;20547;-42
2021/11/15 10:45:11;;;;;;;9.50;6.37;;;9.60;81.20;;;;;;4906454;29;20465;-42
2021/11/15 10:47:41;;;;;;;8.10;6.00;;;9.60;81.00;;;;;;4909274;29;20464;-42
2021/11/15 10:50:17;;;;;;;8.03;5.83;;;9.60;80.80;;;;;;4892703;29;20879;-42
2021/11/15 10:52:56;;;;;;;7.33;5.67;;;9.60;80.70;;;;;;4909621;29;20965;-42
2021/11/15 10:55:22;;;;;;;6.53;5.80;;;9.60;80.60;;;;;;4908244;29;20556;-42
2021/11/15 10:57:50;;;;;;;7.20;5.17;;;9.60;80.60;;;;;;4907858;29;20991;-43
2021/11/15 11:00:21;;;;;;;7.60;5.60;;;9.60;80.50;;;;;;4891963;29;20479;-43
2021/11/15 11:02:55;;;;;;;11.87;5.97;;;9.60;80.60;;;;;;4907278;29;20479;-43
2021/11/15 11:05:26;;;;;;;7.00;5.70;;;9.60;80.50;;;;;;4892309;29;20528;-43
2021/11/15 11:08:20;;;;;;;7.97;5.60;;;9.70;80.60;;;;;;4908063;29;20972;-43
2021/11/15 11:10:57;;;;;;;6.53;5.50;;;9.70;80.80;;;;;;4897358;29;20491;-43
2021/11/15 11:13:27;;;;;;;7.40;5.60;;;9.70;80.70;;;;;;4907971;29;20964;-43
2021/11/15 11:15:55;;;;;;;7.17;6.47;;;9.70;80.50;;;;;;4909943;29;20473;-43
2021/11/15 11:22:08;;;;;;;7.30;5.07;;;9.70;80.60;;;;;;4892188;29;20471;-42
2021/11/15 11:26:58;;;;;;;6.33;5.07;;;9.70;80.70;;;;;;4908001;29;20480;-43
2021/11/15 11:29:28;;;;;;;7.70;5.90;;;9.70;80.50;;;;;;4903799;29;20501;-43
2021/11/15 11:31:59;;;;;;;8.30;5.60;;;9.70;80.80;;;;;;4879108;29;20475;-43
2021/11/15 11:34:27;;;;;;;8.13;5.83;;;9.70;81.00;;;;;;4908856;29;20851;-43
2021/11/15 11:36:54;;;;;;;6.97;5.60;;;9.70;80.60;;;;;;4910274;29;20457;-43
2021/11/15 11:39:22;;;;;;;7.10;5.40;;;9.70;80.60;;;;;;4909311;29;20457;-43
2021/11/15 11:41:54;;;;;;;10.83;7.30;;;9.70;81.00;;;;;;4910920;29;20512;-43
2021/11/15 11:44:24;;;;;;;7.53;5.83;;;9.70;80.40;;;;;;4911570;29;20977;-43
2021/11/15 11:46:51;;;;;;;6.27;5.63;;;9.70;80.50;;;;;;4910376;29;20460;-43
2021/11/15 11:49:24;;;;;;;6.00;5.30;;;9.70;80.30;;;;;;4910134;29;20463;-43
2021/11/15 11:51:54;;;;;;;8.87;7.60;;;9.70;80.40;;;;;;4894034;29;20465;-43
2021/11/15 11:54:27;;;;;;;6.80;5.73;;;9.70;80.60;;;;;;4906427;29;20479;-43
2021/11/15 11:57:11;;;;;;;8.67;6.40;;;9.70;80.70;;;;;;4911043;29;20483;-43
2021/11/15 11:59:46;;;;;;;5.87;4.83;;;9.70;81.00;;;;;;4905559;29;20852;-43
2021/11/15 12:02:32;;;;;;;6.33;4.93;;;9.80;80.50;;;;;;4909170;29;20959;-43
2021/11/15 12:05:09;;;;;;;7.50;5.13;;;9.80;80.20;;;;;;4907579;29;20844;-43
2021/11/15 12:07:55;;;;;;;5.93;4.87;;;9.80;80.30;;;;;;4904267;29;20480;-43
2021/11/15 12:10:46;;;;;;;8.43;5.33;;;9.70;80.60;;;;;;4908027;29;20888;-43
2021/11/15 12:13:15;;;;;;;7.20;6.00;;;9.70;80.80;;;;;;4893858;29;20492;-43
2021/11/15 12:15:56;;;;;;;8.40;6.07;;;9.70;80.70;;;;;;4909658;29;20469;-43
2021/11/15 12:18:33;;;;;;;7.87;5.30;;;9.70;80.20;;;;;;4908736;29;20559;-43
2021/11/15 12:21:03;;;;;;;6.87;6.10;;;9.70;80.40;;;;;;4910209;29;20482;-43
2021/11/15 12:23:50;;;;;;;6.27;4.90;;;9.70;80.40;;;;;;4889061;29;20611;-43
2021/11/15 12:26:23;;;;;;;5.90;5.00;;;9.80;80.50;;;;;;4908344;29;20464;-43
2021/11/15 12:28:55;;;;;;;8.87;5.83;;;9.80;80.60;;;;;;4903658;29;21228;-42
2021/11/15 12:32:01;;;;;;;6.40;5.07;;;9.80;80.80;;;;;;4904942;29;21013;-42
2021/11/15 12:34:53;;;;;;;7.20;5.60;;;9.80;81.00;;;;;;4911884;29;21009;-42
2021/11/15 12:37:37;;;;;;;8.37;5.80;;;9.80;80.50;;;;;;4910646;29;20461;-42
2021/11/15 12:40:08;;;;;;;7.77;5.97;;;9.70;80.70;;;;;;4895066;29;20449;-42
2021/11/15 12:42:35;;;;;;;6.97;5.27;;;9.70;80.50;;;;;;4911336;29;20457;-42
2021/11/15 12:45:10;;;;;;;9.20;5.20;;;9.70;80.60;;;;;;4910758;29;20457;-42
2021/11/15 12:47:42;;;;;;;7.73;5.87;;;9.70;80.70;;;;;;4909060;29;21034;-42
2021/11/15 12:50:18;;;;;;;9.30;6.37;;;9.70;80.90;;;;;;4908859;29;20515;-42
2021/11/15 12:52:59;;;;;;;9.60;6.13;;;9.70;80.90;;;;;;4910432;29;20462;-42
2021/11/15 12:55:32;;;;;;;8.67;5.57;;;9.80;80.70;;;;;;4908913;29;21031;-42
2021/11/15 12:58:01;;;;;;;8.87;5.33;;;9.70;80.70;;;;;;4909826;29;20456;-42
2021/11/15 13:00:37;;;;;;;7.50;5.97;;;9.70;80.80;;;;;;4910390;29;20483;-42
2021/11/15 13:03:07;;;;;;;5.87;4.70;;;9.70;81.00;;;;;;4907284;29;20463;-42